createdAt,value
2018-09-02T00:00:29.350Z,12.20
2018-09-02T00:02:57.756Z,12.10
2018-09-02T00:05:26.184Z,12.00
2018-09-02T00:07:55.018Z,11.90
2018-09-02T00:10:23.434Z,11.80
2018-09-02T00:12:51.811Z,11.80
2018-09-02T00:15:20.206Z,11.70
2018-09-02T00:17:48.611Z,11.70
2018-09-02T00:20:17.021Z,11.70
2018-09-02T00:22:45.434Z,11.60
2018-09-02T00:25:13.833Z,11.60
2018-09-02T00:27:42.531Z,11.50
2018-09-02T00:30:10.939Z,11.60
2018-09-02T00:32:40.387Z,11.60
2018-09-02T00:35:08.804Z,11.50
2018-09-02T00:37:37.197Z,11.50
2018-09-02T00:40:06.496Z,11.50
2018-09-02T00:42:34.895Z,11.50
2018-09-02T00:45:03.279Z,11.40
2018-09-02T00:47:31.785Z,11.40
2018-09-02T00:50:00.859Z,11.40
2018-09-02T00:52:29.267Z,11.40
2018-09-02T00:54:58.577Z,11.30
2018-09-02T00:57:26.988Z,11.30
2018-09-02T00:59:55.419Z,11.20
2018-09-02T01:02:23.815Z,11.10
2018-09-02T01:04:52.205Z,11.10
2018-09-02T01:07:20.607Z,11.10
2018-09-02T01:09:49.010Z,11.10
2018-09-02T01:12:17.825Z,11.00
2018-09-02T01:14:46.597Z,11.00
2018-09-02T01:17:15.000Z,11.00
2018-09-02T01:19:43.397Z,11.00
2018-09-02T01:22:12.753Z,11.00
2018-09-02T01:24:41.586Z,11.00
2018-09-02T01:27:09.977Z,11.00
2018-09-02T01:29:38.801Z,11.00
2018-09-02T01:32:07.194Z,11.00
2018-09-02T01:34:35.599Z,11.00
2018-09-02T01:37:04.035Z,11.00
2018-09-02T01:39:32.452Z,11.00
2018-09-02T01:42:00.836Z,11.00
2018-09-02T01:44:29.961Z,11.00
2018-09-02T01:46:58.366Z,11.00
2018-09-02T01:49:26.754Z,10.90
2018-09-02T01:51:55.728Z,10.90
2018-09-02T01:54:24.152Z,10.90
2018-09-02T01:56:52.870Z,10.90
2018-09-02T01:59:21.330Z,10.90
2018-09-02T02:01:49.720Z,10.80
2018-09-02T02:04:18.118Z,10.80
2018-09-02T02:06:46.529Z,10.80
2018-09-02T02:09:14.914Z,10.80
2018-09-02T02:11:43.750Z,10.80
2018-09-02T02:14:12.588Z,10.80
2018-09-02T02:16:40.979Z,10.70
2018-09-02T02:19:09.380Z,10.60
2018-09-02T02:21:37.771Z,10.60
2018-09-02T02:24:06.193Z,10.40
2018-09-02T02:26:34.642Z,10.40
2018-09-02T02:29:03.054Z,10.40
2018-09-02T02:31:31.464Z,10.40
2018-09-02T02:33:59.867Z,10.30
2018-09-02T02:36:28.258Z,10.30
2018-09-02T02:38:56.646Z,10.30
2018-09-02T02:41:25.078Z,10.30
2018-09-02T02:43:54.650Z,10.30
2018-09-02T02:46:23.492Z,10.30
2018-09-02T02:48:51.874Z,10.30
2018-09-02T02:51:20.272Z,10.20
2018-09-02T02:53:48.676Z,10.20
2018-09-02T02:56:17.088Z,10.20
2018-09-02T02:58:45.542Z,10.10
2018-09-02T03:01:13.940Z,10.10
2018-09-02T03:03:42.386Z,10.10
2018-09-02T03:06:12.123Z,10.10
2018-09-02T03:08:40.471Z,10.10
2018-09-02T03:11:08.858Z,10.10
2018-09-02T03:13:37.264Z,10.10
2018-09-02T03:16:06.657Z,10.10
2018-09-02T03:18:35.061Z,10.10
2018-09-02T03:21:03.457Z,10.10
2018-09-02T03:23:35.087Z,10.10
2018-09-02T03:26:03.960Z,10.10
2018-09-02T03:28:32.352Z,10.00
2018-09-02T03:31:00.797Z,10.00
2018-09-02T03:33:29.222Z,9.90
2018-09-02T03:35:58.403Z,9.90
2018-09-02T03:38:26.899Z,9.90
2018-09-02T03:40:55.303Z,9.90
2018-09-02T03:43:23.866Z,9.90
2018-09-02T03:45:52.250Z,10.00
2018-09-02T03:48:20.643Z,10.10
2018-09-02T03:50:49.032Z,10.10
2018-09-02T03:53:17.424Z,10.00
2018-09-02T03:55:45.814Z,10.00
2018-09-02T03:58:14.922Z,10.00
2018-09-02T04:00:43.335Z,10.00
2018-09-02T04:03:11.741Z,10.00
2018-09-02T04:05:40.233Z,9.90
2018-09-02T04:08:09.084Z,9.90
2018-09-02T04:10:37.477Z,9.90
2018-09-02T04:13:05.986Z,9.90
2018-09-02T04:15:34.371Z,9.90
2018-09-02T04:18:03.509Z,9.80
2018-09-02T04:20:36.186Z,9.80
2018-09-02T04:23:06.205Z,9.70
2018-09-02T04:25:34.979Z,9.70
2018-09-02T04:28:04.047Z,9.60
2018-09-02T04:30:32.439Z,9.60
2018-09-02T04:33:00.827Z,9.60
2018-09-02T04:35:29.223Z,9.50
2018-09-02T04:37:57.621Z,9.40
2018-09-02T04:40:26.007Z,9.40
2018-09-02T04:42:54.425Z,9.40
2018-09-02T04:45:22.876Z,9.40
2018-09-02T04:47:51.259Z,9.40
2018-09-02T04:50:21.545Z,9.40
2018-09-02T04:52:49.943Z,9.30
2018-09-02T04:55:18.377Z,9.30
2018-09-02T04:57:46.767Z,9.30
2018-09-02T05:00:15.249Z,9.20
2018-09-02T05:02:43.596Z,9.20
2018-09-02T05:05:12.003Z,9.20
2018-09-02T05:07:40.839Z,9.20
2018-09-02T05:10:09.233Z,9.30
2018-09-02T05:12:37.749Z,9.30
2018-09-02T05:15:06.700Z,9.30
2018-09-02T05:17:35.915Z,9.30
2018-09-02T05:20:04.721Z,9.30
2018-09-02T05:22:33.382Z,9.30
2018-09-02T05:25:01.773Z,9.30
2018-09-02T05:27:30.202Z,9.30
2018-09-02T05:29:58.597Z,9.40
2018-09-02T05:32:26.975Z,9.40
2018-09-02T05:34:55.349Z,9.40
2018-09-02T05:37:24.186Z,9.50
2018-09-02T05:39:52.603Z,9.60
2018-09-02T05:42:20.989Z,9.60
2018-09-02T05:44:49.383Z,9.70
2018-09-02T05:47:17.770Z,9.70
2018-09-02T05:49:46.173Z,9.90
2018-09-02T05:52:14.564Z,9.90
2018-09-02T05:54:42.962Z,10.00
2018-09-02T05:57:11.382Z,10.10
2018-09-02T05:59:40.063Z,10.10
2018-09-02T06:02:08.518Z,10.20
2018-09-02T06:04:37.535Z,10.30
2018-09-02T06:07:05.916Z,10.40
2018-09-02T06:09:34.496Z,10.50
2018-09-02T06:12:03.345Z,10.60
2018-09-02T06:14:32.416Z,10.70
2018-09-02T06:17:00.871Z,10.80
2018-09-02T06:19:29.257Z,10.90
2018-09-02T06:21:57.791Z,11.00
2018-09-02T06:24:26.298Z,11.20
2018-09-02T06:26:54.706Z,11.30
2018-09-02T06:29:23.133Z,11.40
2018-09-02T06:31:51.534Z,11.40
2018-09-02T06:34:19.922Z,11.50
2018-09-02T06:36:48.349Z,11.60
2018-09-02T06:39:16.767Z,11.70
2018-09-02T06:41:45.304Z,11.80
2018-09-02T06:44:13.763Z,11.90
2018-09-02T06:46:42.158Z,12.00
2018-09-02T06:49:10.598Z,12.10
2018-09-02T06:51:39.012Z,12.20
2018-09-02T06:54:07.414Z,12.40
2018-09-02T06:56:35.837Z,12.50
2018-09-02T06:59:04.259Z,12.60
2018-09-02T07:01:34.164Z,12.70
2018-09-02T07:04:02.581Z,12.80
2018-09-02T07:06:30.984Z,12.90
2018-09-02T07:08:59.429Z,13.00
2018-09-02T07:11:28.678Z,13.10
2018-09-02T07:13:57.073Z,13.20
2018-09-02T07:16:25.496Z,13.30
2018-09-02T07:18:53.906Z,13.40
2018-09-02T07:21:22.302Z,13.50
2018-09-02T07:23:50.737Z,13.60
2018-09-02T07:26:19.150Z,13.70
2018-09-02T07:28:47.953Z,13.80
2018-09-02T07:31:16.881Z,13.80
2018-09-02T07:33:45.316Z,14.00
2018-09-02T07:36:13.725Z,14.10
2018-09-02T07:38:42.198Z,14.20
2018-09-02T07:41:10.910Z,14.30
2018-09-02T07:43:39.765Z,14.30
2018-09-02T07:46:08.752Z,14.50
2018-09-02T07:48:37.134Z,14.50
2018-09-02T07:51:06.218Z,14.60
2018-09-02T07:53:34.610Z,14.60
2018-09-02T07:56:03.146Z,14.70
2018-09-02T07:58:31.563Z,14.80
2018-09-02T08:00:59.967Z,14.90
2018-09-02T08:03:28.355Z,14.90
2018-09-02T08:05:57.191Z,15.00
2018-09-02T08:08:25.605Z,15.10
2018-09-02T08:10:54.046Z,15.20
2018-09-02T08:13:23.056Z,15.30
2018-09-02T08:15:51.475Z,15.40
2018-09-02T08:18:19.863Z,15.50
2018-09-02T08:20:48.277Z,15.60
2018-09-02T08:23:16.710Z,15.70
2018-09-02T08:25:45.452Z,15.90
2018-09-02T08:28:13.883Z,16.00
2018-09-02T08:30:42.315Z,16.10
2018-09-02T08:33:10.738Z,16.20
2018-09-02T08:35:39.383Z,16.30
2018-09-02T08:38:12.151Z,16.40
2018-09-02T08:40:40.587Z,16.40
2018-09-02T08:43:09.017Z,16.60
2018-09-02T08:45:37.909Z,16.70
2018-09-02T08:48:06.391Z,16.80
2018-09-02T08:50:34.957Z,16.90
2018-09-02T08:53:03.368Z,16.90
2018-09-02T08:55:32.125Z,17.00
2018-09-02T08:58:00.976Z,17.10
2018-09-02T09:00:29.873Z,17.20
2018-09-02T09:02:58.320Z,17.30
2018-09-02T09:05:26.730Z,17.40
2018-09-02T09:07:55.267Z,17.50
2018-09-02T09:10:23.650Z,17.70
2018-09-02T09:12:52.078Z,18.20
2018-09-02T09:15:20.452Z,18.70
2018-09-02T09:17:48.980Z,19.20
2018-09-02T09:20:17.390Z,19.60
2018-09-02T09:22:45.864Z,19.80
2018-09-02T09:25:14.424Z,20.00
2018-09-02T09:27:42.696Z,20.20
2018-09-02T09:30:11.601Z,20.50
2018-09-02T09:32:40.651Z,20.70
2018-09-02T09:35:09.047Z,20.80
2018-09-02T09:37:37.707Z,20.80
2018-09-02T09:40:06.576Z,20.80
2018-09-02T09:42:34.983Z,20.90
2018-09-02T09:45:04.107Z,21.00
2018-09-02T09:47:32.546Z,21.00
2018-09-02T09:50:00.964Z,20.90
2018-09-02T09:52:29.393Z,20.90
2018-09-02T09:54:58.098Z,20.80
2018-09-02T09:57:26.494Z,20.80
2018-09-02T09:59:54.967Z,20.90
2018-09-02T10:02:23.394Z,21.10
2018-09-02T10:04:51.808Z,21.20
2018-09-02T10:07:20.207Z,21.40
2018-09-02T10:09:48.664Z,21.50
2018-09-02T10:12:17.063Z,21.60
2018-09-02T10:14:45.447Z,21.70
2018-09-02T10:17:13.876Z,21.80
2018-09-02T10:19:42.297Z,21.80
2018-09-02T10:22:10.746Z,21.80
2018-09-02T10:24:39.095Z,21.80
2018-09-02T10:27:07.485Z,22.00
2018-09-02T10:29:35.869Z,22.00
2018-09-02T10:32:04.263Z,22.20
2018-09-02T10:34:32.651Z,22.30
2018-09-02T10:37:01.047Z,22.30
2018-09-02T10:39:29.446Z,22.30
2018-09-02T10:41:58.118Z,22.50
2018-09-02T10:44:26.526Z,22.60
2018-09-02T10:46:54.930Z,22.70
2018-09-02T10:49:23.318Z,22.90
2018-09-02T10:51:51.723Z,22.80
2018-09-02T10:54:20.110Z,22.70
2018-09-02T10:56:48.531Z,22.70
2018-09-02T10:59:17.004Z,22.80
2018-09-02T11:01:45.386Z,23.00
2018-09-02T11:04:13.778Z,23.30
2018-09-02T11:06:42.207Z,23.20
2018-09-02T11:09:11.724Z,23.10
2018-09-02T11:11:40.176Z,23.00
2018-09-02T11:14:09.236Z,23.00
2018-09-02T11:16:37.712Z,23.10
2018-09-02T11:19:06.688Z,23.20
2018-09-02T11:21:35.117Z,23.40
2018-09-02T11:24:03.515Z,23.50
2018-09-02T11:26:31.890Z,23.60
2018-09-02T11:29:00.465Z,23.70
2018-09-02T11:31:28.854Z,23.60
2018-09-02T11:33:57.299Z,23.70
2018-09-02T11:36:26.049Z,23.70
2018-09-02T11:38:54.446Z,23.60
2018-09-02T11:41:22.861Z,23.60
2018-09-02T11:43:51.276Z,23.60
2018-09-02T11:46:19.674Z,23.70
2018-09-02T11:48:48.067Z,23.80
2018-09-02T11:51:16.480Z,23.70
2018-09-02T11:53:44.881Z,23.60
2018-09-02T11:56:13.291Z,23.60
2018-09-02T11:58:41.873Z,23.70
2018-09-02T12:01:10.285Z,23.90
2018-09-02T12:03:38.665Z,24.00
2018-09-02T12:06:07.069Z,24.10
2018-09-02T12:08:35.585Z,24.10
2018-09-02T12:11:03.995Z,24.00
2018-09-02T12:13:32.475Z,23.90
2018-09-02T12:16:00.949Z,23.80
2018-09-02T12:18:29.469Z,23.90
2018-09-02T12:20:57.891Z,23.90
2018-09-02T12:23:26.357Z,23.90
2018-09-02T12:25:54.773Z,24.10
2018-09-02T12:28:23.177Z,24.30
2018-09-02T12:30:51.583Z,24.30
2018-09-02T12:33:20.028Z,24.30
2018-09-02T12:35:48.457Z,24.30
2018-09-02T12:38:16.879Z,24.50
2018-09-02T12:40:45.336Z,24.60
2018-09-02T12:43:13.775Z,24.60
2018-09-02T12:45:42.211Z,24.70
2018-09-02T12:48:10.622Z,24.80
2018-09-02T12:50:39.030Z,24.80
2018-09-02T12:53:07.434Z,24.70
2018-09-02T12:55:35.847Z,24.60
2018-09-02T12:58:04.262Z,24.60
2018-09-02T13:00:34.719Z,24.60
2018-09-02T13:03:04.034Z,24.60
2018-09-02T13:05:32.404Z,24.70
2018-09-02T13:08:00.778Z,24.70
2018-09-02T13:10:29.167Z,24.70
2018-09-02T13:12:57.580Z,24.70
2018-09-02T13:15:26.051Z,24.70
2018-09-02T13:17:54.383Z,24.70
2018-09-02T13:20:22.775Z,24.70
2018-09-02T13:22:51.163Z,24.70
2018-09-02T13:25:19.610Z,24.80
2018-09-02T13:27:48.063Z,24.80
2018-09-02T13:30:16.490Z,25.00
2018-09-02T13:32:44.893Z,25.30
2018-09-02T13:35:13.289Z,25.30
2018-09-02T13:37:41.677Z,25.30
2018-09-02T13:40:10.228Z,25.30
2018-09-02T13:42:38.685Z,25.40
2018-09-02T13:45:07.955Z,25.40
2018-09-02T13:47:36.739Z,25.50
2018-09-02T13:50:05.175Z,25.40
2018-09-02T13:52:33.592Z,25.40
2018-09-02T13:55:02.007Z,25.60
2018-09-02T13:57:30.405Z,25.60
2018-09-02T13:59:58.793Z,25.70
2018-09-02T14:02:27.198Z,25.70
2018-09-02T14:04:55.596Z,25.80
2018-09-02T14:07:24.300Z,25.80
2018-09-02T14:09:52.732Z,25.60
2018-09-02T14:12:21.162Z,25.50
2018-09-02T14:14:50.062Z,25.40
2018-09-02T14:17:18.487Z,25.50
2018-09-02T14:19:46.878Z,25.60
2018-09-02T14:22:15.298Z,25.60
2018-09-02T14:24:43.695Z,25.60
2018-09-02T14:27:12.094Z,25.60
2018-09-02T14:29:40.724Z,25.80
2018-09-02T14:32:09.126Z,25.90
2018-09-02T14:34:37.517Z,26.00
2018-09-02T14:37:06.348Z,26.20
2018-09-02T14:39:34.742Z,26.40
2018-09-02T14:42:03.289Z,26.40
2018-09-02T14:44:31.686Z,26.40
2018-09-02T14:47:00.065Z,26.40
2018-09-02T14:49:28.465Z,26.50
2018-09-02T14:51:56.855Z,26.50
2018-09-02T14:54:25.243Z,26.70
2018-09-02T14:56:53.631Z,26.70
2018-09-02T14:59:22.039Z,26.70
2018-09-02T15:01:50.430Z,26.80
2018-09-02T15:04:18.841Z,26.90
2018-09-02T15:06:47.231Z,26.70
2018-09-02T15:09:15.611Z,26.70
2018-09-02T15:11:44.119Z,26.70
2018-09-02T15:14:12.516Z,26.70
2018-09-02T15:16:40.942Z,26.70
2018-09-02T15:19:09.346Z,26.70
2018-09-02T15:21:37.782Z,26.60
2018-09-02T15:24:06.215Z,26.60
2018-09-02T15:26:34.605Z,26.60
2018-09-02T15:29:03.021Z,26.80
2018-09-02T15:31:31.419Z,26.80
2018-09-02T15:33:59.806Z,26.90
2018-09-02T15:36:28.195Z,27.00
2018-09-02T15:38:56.627Z,27.10
2018-09-02T15:41:25.037Z,27.20
2018-09-02T15:43:53.431Z,27.20
2018-09-02T15:46:21.868Z,27.20
2018-09-02T15:48:50.298Z,27.30
2018-09-02T15:51:18.691Z,27.50
2018-09-02T15:53:47.103Z,27.70
2018-09-02T15:56:15.510Z,27.90
2018-09-02T15:58:43.920Z,28.00
2018-09-02T16:01:12.298Z,27.90
2018-09-02T16:03:40.714Z,27.90
2018-09-02T16:06:09.129Z,28.00
2018-09-02T16:08:37.747Z,28.10
2018-09-02T16:11:06.167Z,28.20
2018-09-02T16:13:34.579Z,28.10
2018-09-02T16:16:02.973Z,28.00
2018-09-02T16:18:31.386Z,28.00
2018-09-02T16:20:59.788Z,28.10
2018-09-02T16:23:28.187Z,28.10
2018-09-02T16:25:56.795Z,28.20
2018-09-02T16:28:25.227Z,28.30
2018-09-02T16:30:53.842Z,28.50
2018-09-02T16:33:22.418Z,28.70
2018-09-02T16:35:50.892Z,28.90
2018-09-02T16:38:19.289Z,29.10
2018-09-02T16:40:48.012Z,29.30
2018-09-02T16:43:16.440Z,29.30
2018-09-02T16:45:44.838Z,29.20
2018-09-02T16:48:13.236Z,29.00
2018-09-02T16:50:41.638Z,28.90
2018-09-02T16:53:10.025Z,28.90
2018-09-02T16:55:38.415Z,28.80
2018-09-02T16:58:06.838Z,28.80
2018-09-02T17:00:35.279Z,28.70
2018-09-02T17:03:03.717Z,28.60
2018-09-02T17:05:32.123Z,28.70
2018-09-02T17:08:00.515Z,28.80
2018-09-02T17:10:28.929Z,28.80
2018-09-02T17:12:57.436Z,28.80
2018-09-02T17:15:25.764Z,28.70
2018-09-02T17:17:54.662Z,28.60
2018-09-02T17:20:29.649Z,28.60
2018-09-02T17:23:03.305Z,28.50
2018-09-02T17:25:31.761Z,28.40
2018-09-02T17:28:00.171Z,28.20
2018-09-02T17:30:28.599Z,28.20
2018-09-02T17:32:58.041Z,28.00
2018-09-02T17:35:27.173Z,27.90
2018-09-02T17:37:55.653Z,27.70
2018-09-02T17:40:24.094Z,27.70
2018-09-02T17:42:52.520Z,27.50
2018-09-02T17:45:21.247Z,27.30
2018-09-02T17:47:49.671Z,27.10
2018-09-02T17:50:18.419Z,27.00
2018-09-02T17:52:47.731Z,26.80
2018-09-02T17:55:16.380Z,26.70
2018-09-02T17:57:44.838Z,26.40
2018-09-02T18:00:17.937Z,26.10
2018-09-02T18:02:46.820Z,25.80
2018-09-02T18:05:15.204Z,25.60
2018-09-02T18:07:43.763Z,25.30
2018-09-02T18:10:12.174Z,25.00
2018-09-02T18:12:41.138Z,24.70
2018-09-02T18:15:09.582Z,24.40
2018-09-02T18:17:38.080Z,24.10
2018-09-02T18:20:12.419Z,23.70
2018-09-02T18:22:40.929Z,23.40
2018-09-02T18:25:09.376Z,23.00
2018-09-02T18:27:40.486Z,22.60
2018-09-02T18:30:08.926Z,22.30
2018-09-02T18:32:38.401Z,22.00
2018-09-02T18:35:06.727Z,21.60
2018-09-02T18:37:35.210Z,21.20
2018-09-02T18:40:03.665Z,20.90
2018-09-02T18:42:32.073Z,20.70
2018-09-02T18:45:01.824Z,20.40
2018-09-02T18:47:30.230Z,20.30
2018-09-02T18:49:58.648Z,20.20
2018-09-02T18:52:27.161Z,20.10
2018-09-02T18:54:55.554Z,20.00
2018-09-02T18:57:23.994Z,19.90
2018-09-02T18:59:52.384Z,19.70
2018-09-02T19:02:20.844Z,19.60
2018-09-02T19:04:49.263Z,19.50
2018-09-02T19:07:18.020Z,19.40
2018-09-02T19:09:46.504Z,19.20
2018-09-02T19:12:14.862Z,19.10
2018-09-02T19:14:43.275Z,19.00
2018-09-02T19:17:11.701Z,19.00
2018-09-02T19:19:40.584Z,18.90
2018-09-02T19:22:09.421Z,18.90
2018-09-02T19:24:38.471Z,18.80
2018-09-02T19:27:07.011Z,18.70
2018-09-02T19:29:35.455Z,18.60
2018-09-02T19:32:03.899Z,18.50
2018-09-02T19:34:32.303Z,18.40
2018-09-02T19:37:00.722Z,18.30
2018-09-02T19:39:29.124Z,18.20
2018-09-02T19:41:57.789Z,18.10
2018-09-02T19:44:26.203Z,18.10
2018-09-02T19:46:54.644Z,18.00
2018-09-02T19:49:23.906Z,18.00
2018-09-02T19:51:52.865Z,17.90
2018-09-02T19:54:28.570Z,17.90
2018-09-02T19:56:58.048Z,17.80
2018-09-02T19:59:26.436Z,17.80
2018-09-02T20:01:55.012Z,17.70
2018-09-02T20:04:23.543Z,17.70
2018-09-02T20:06:51.945Z,17.70
2018-09-02T20:09:20.363Z,17.50
2018-09-02T20:11:48.782Z,17.50
2018-09-02T20:14:17.224Z,17.50
2018-09-02T20:16:45.654Z,17.50
2018-09-02T20:19:14.064Z,17.40
2018-09-02T20:21:42.472Z,17.30
2018-09-02T20:24:16.126Z,17.20
2018-09-02T20:26:44.572Z,17.10
2018-09-02T20:29:12.984Z,17.10
2018-09-02T20:31:41.397Z,17.00
2018-09-02T20:34:09.796Z,17.00
2018-09-02T20:36:38.206Z,17.00
2018-09-02T20:39:08.211Z,16.90
2018-09-02T20:41:36.895Z,16.90
2018-09-02T20:44:05.693Z,16.90
2018-09-02T20:46:34.385Z,16.80
2018-09-02T20:49:02.839Z,16.80
2018-09-02T20:51:31.241Z,16.80
2018-09-02T20:53:59.792Z,16.80
2018-09-02T20:56:28.206Z,16.80
2018-09-02T20:58:57.219Z,16.70
2018-09-02T21:01:25.734Z,16.70
2018-09-02T21:03:54.206Z,16.60
2018-09-02T21:06:23.087Z,16.60
2018-09-02T21:08:51.491Z,16.60
2018-09-02T21:11:19.919Z,16.50
2018-09-02T21:13:48.311Z,16.50
2018-09-02T21:16:16.711Z,16.50
2018-09-02T21:18:45.127Z,16.40
2018-09-02T21:21:13.968Z,16.40
2018-09-02T21:23:42.469Z,16.30
2018-09-02T21:26:10.865Z,16.30
2018-09-02T21:28:39.372Z,16.30
2018-09-02T21:31:08.470Z,16.30
2018-09-02T21:33:37.434Z,16.30
2018-09-02T21:36:06.021Z,16.30
2018-09-02T21:38:34.426Z,16.20
2018-09-02T21:41:02.845Z,16.20
2018-09-02T21:43:31.514Z,16.10
2018-09-02T21:46:00.332Z,16.00
2018-09-02T21:48:28.726Z,16.00
2018-09-02T21:50:57.198Z,15.90
2018-09-02T21:53:26.306Z,15.80
2018-09-02T21:55:54.718Z,15.70
2018-09-02T21:58:23.261Z,15.70
2018-09-02T22:00:51.684Z,15.60
2018-09-02T22:03:20.071Z,15.60
2018-09-02T22:05:48.678Z,15.60
2018-09-02T22:08:17.312Z,15.60
2018-09-02T22:10:45.706Z,15.60
2018-09-02T22:13:14.665Z,15.50
2018-09-02T22:15:43.090Z,15.50
2018-09-02T22:18:11.509Z,15.50
2018-09-02T22:20:41.891Z,15.50
2018-09-02T22:23:10.722Z,15.50
2018-09-02T22:25:39.221Z,15.40
2018-09-02T22:28:07.547Z,15.40
2018-09-02T22:30:36.211Z,15.30
2018-09-02T22:33:05.009Z,15.20
2018-09-02T22:35:33.413Z,15.20
2018-09-02T22:38:02.362Z,15.20
2018-09-02T22:40:30.769Z,15.20
2018-09-02T22:42:59.186Z,15.20
2018-09-02T22:45:27.881Z,15.20
2018-09-02T22:47:56.311Z,15.20
2018-09-02T22:50:25.113Z,15.20
2018-09-02T22:52:53.706Z,15.20
2018-09-02T22:55:22.100Z,15.10
2018-09-02T22:57:50.929Z,15.10
2018-09-02T23:00:19.300Z,15.10
2018-09-02T23:02:47.989Z,15.10
2018-09-02T23:05:16.847Z,15.10
2018-09-02T23:07:46.355Z,15.10
2018-09-02T23:10:14.749Z,15.10
2018-09-02T23:12:43.170Z,15.10
2018-09-02T23:15:11.592Z,15.00
2018-09-02T23:17:40.002Z,15.00
2018-09-02T23:20:08.796Z,15.00
2018-09-02T23:22:37.239Z,15.00
2018-09-02T23:25:05.658Z,14.90
2018-09-02T23:27:34.720Z,14.90
2018-09-02T23:30:03.135Z,14.90
2018-09-02T23:32:31.536Z,15.00
2018-09-02T23:35:00.311Z,15.00
2018-09-02T23:37:29.142Z,15.00
2018-09-02T23:39:57.539Z,15.00
2018-09-02T23:42:25.940Z,15.10
2018-09-02T23:44:54.345Z,15.10
2018-09-02T23:47:23.194Z,15.20
2018-09-02T23:49:51.596Z,15.20
2018-09-02T23:52:19.989Z,15.10
2018-09-02T23:54:48.382Z,15.10
2018-09-02T23:57:16.779Z,15.10
2018-09-02T23:59:45.162Z,15.10
